Time;durP1;ratioP1;P1;durP2;ratioP2;P2;SDS_P1;SDS_P2;PMS_P1;PMS_P2;Temp;Humidity;BMP_temperature;BMP_pressure;BME280_temperature;BME280_humidity;BME280_pressure;Samples;Min_cycle;Max_cycle;Signal;HPM_P1;HPM_P2
2023/08/12 00:01:21;;;;;;;8.70;1.00;;;;;;;16.97;100.00;99609.04;105945;1255;60789;-51
2023/08/12 00:03:48;;;;;;;4.30;1.30;;;;;;;16.98;100.00;99616.59;105745;1255;60527;-50
2023/08/12 00:06:16;;;;;;;1.20;0.60;;;;;;;17.00;100.00;99616.48;105814;1258;73852;-51
2023/08/12 00:08:43;;;;;;;2.10;0.70;;;;;;;17.00;100.00;99619.21;104955;1256;66296;-51
2023/08/12 00:11:10;;;;;;;4.80;1.10;;;;;;;16.99;100.00;99617.83;104944;1256;72469;-50
2023/08/12 00:13:38;;;;;;;2.20;0.90;;;;;;;16.99;100.00;99619.29;105044;1255;61882;-52
2023/08/12 00:16:05;;;;;;;3.40;0.80;;;;;;;16.97;100.00;99620.14;104941;1256;60621;-51
2023/08/12 00:18:36;;;;;;;3.80;1.00;;;;;;;16.94;100.00;99621.08;104996;1256;73750;-50
2023/08/12 00:21:08;;;;;;;2.10;0.90;;;;;;;16.92;100.00;99622.16;105660;1258;67239;-52
2023/08/12 00:23:38;;;;;;;3.20;0.80;;;;;;;16.89;100.00;99624.40;105475;1259;70552;-52
2023/08/12 00:26:08;;;;;;;3.70;0.90;;;;;;;16.85;100.00;99619.27;104956;1259;60532;-52
2023/08/12 00:28:36;;;;;;;2.20;0.90;;;;;;;16.80;100.00;99614.74;104481;1255;60719;-49
2023/08/12 00:31:04;;;;;;;3.90;1.00;;;;;;;16.75;100.00;99617.46;104976;1256;74735;-50
2023/08/12 00:33:33;;;;;;;7.50;1.00;;;;;;;16.71;100.00;99623.27;105241;1256;67187;-51
2023/08/12 00:36:00;;;;;;;0.80;0.70;;;;;;;16.66;100.00;99619.62;104903;1256;71400;-52
2023/08/12 00:38:28;;;;;;;3.50;0.80;;;;;;;16.64;100.00;99621.23;108812;1256;61670;-51
2023/08/12 00:40:55;;;;;;;1.00;0.70;;;;;;;16.63;100.00;99620.02;105109;1259;60457;-50
2023/08/12 00:43:22;;;;;;;3.90;0.70;;;;;;;16.61;100.00;99617.60;104790;1256;74460;-50
2023/08/12 00:45:50;;;;;;;0.90;0.60;;;;;;;16.59;100.00;99621.39;104770;1259;69427;-50
2023/08/12 00:48:17;;;;;;;2.20;0.70;;;;;;;16.57;100.00;99615.05;104813;1256;72215;-52
2023/08/12 00:50:44;;;;;;;0.90;0.70;;;;;;;16.56;100.00;99617.29;105011;1256;62155;-51
2023/08/12 00:53:13;;;;;;;0.90;0.70;;;;;;;16.56;100.00;99618.73;105052;1255;60713;-51
2023/08/12 00:55:40;;;;;;;0.90;0.70;;;;;;;16.56;100.00;99618.91;104849;1262;73843;-51
2023/08/12 00:58:08;;;;;;;0.70;0.70;;;;;;;16.56;100.00;99621.77;104964;1260;65797;-52
2023/08/12 01:00:35;;;;;;;1.00;0.90;;;;;;;16.56;100.00;99621.61;104936;1264;72691;-51
2023/08/12 01:03:03;;;;;;;1.20;1.10;;;;;;;16.54;100.00;99619.23;104685;1258;60500;-50
2023/08/12 01:05:31;;;;;;;4.00;0.80;;;;;;;16.51;100.00;99619.09;104952;1255;60440;-50
2023/08/12 01:07:58;;;;;;;1.20;0.80;;;;;;;16.46;100.00;99619.08;104924;1255;72567;-51
2023/08/12 01:10:30;;;;;;;2.90;0.70;;;;;;;16.44;100.00;99621.80;105369;1258;67528;-51
2023/08/12 01:13:16;;;;;;;1.90;0.80;;;;;;;16.41;100.00;99620.74;104863;1259;72441;-51
2023/08/12 01:15:43;;;;;;;2.50;0.70;;;;;;;16.38;100.00;99621.52;105678;1256;60544;-50
2023/08/12 01:18:11;;;;;;;4.00;0.70;;;;;;;16.36;100.00;99621.32;104976;1259;60432;-49
2023/08/12 01:20:38;;;;;;;0.70;0.70;;;;;;;16.35;100.00;99619.76;104788;1259;74536;-50
2023/08/12 01:23:15;;;;;;;1.70;0.70;;;;;;;16.35;100.00;99617.44;104958;1258;68438;-51
2023/08/12 01:25:42;;;;;;;0.70;0.70;;;;;;;16.34;100.00;99618.08;104777;1261;72482;-51
2023/08/12 01:28:10;;;;;;;2.30;0.70;;;;;;;16.33;100.00;99619.01;104859;1257;62146;-50
2023/08/12 01:30:50;;;;;;;0.80;0.70;;;;;;;16.33;100.00;99615.59;104960;1254;61742;-48
2023/08/12 01:33:39;;;;;;;1.40;0.80;;;;;;;16.31;100.00;99606.31;104782;1256;74490;-49
2023/08/12 01:36:13;;;;;;;2.20;0.80;;;;;;;16.28;100.00;99606.14;104807;1257;67908;-50
2023/08/12 01:38:41;;;;;;;1.30;0.80;;;;;;;16.27;100.00;99606.92;104784;1262;71521;-51
2023/08/12 01:41:10;;;;;;;1.70;0.70;;;;;;;16.27;100.00;99610.02;105007;1256;60457;-51
2023/08/12 01:43:38;;;;;;;2.40;1.00;;;;;;;16.25;100.00;99609.41;104784;1261;60733;-50
2023/08/12 01:46:06;;;;;;;3.20;0.80;;;;;;;16.23;100.00;99603.48;105292;1258;72565;-50
2023/08/12 01:48:33;;;;;;;1.30;0.80;;;;;;;16.20;100.00;99601.49;106476;1260;67164;-50
2023/08/12 01:51:01;;;;;;;1.80;1.10;;;;;;;16.16;100.00;99597.21;105818;1259;72784;-50
2023/08/12 01:53:29;;;;;;;2.10;0.70;;;;;;;16.15;100.00;99603.70;104840;1262;60610;-51
2023/08/12 01:55:56;;;;;;;2.00;0.70;;;;;;;16.13;100.00;99603.27;104902;1256;60538;-50
2023/08/12 01:58:26;;;;;;;2.40;1.10;;;;;;;16.12;100.00;99595.73;106344;1260;75668;-50
2023/08/12 02:00:53;;;;;;;3.00;0.70;;;;;;;16.11;100.00;99595.64;104804;1257;67565;-49
2023/08/12 02:03:20;;;;;;;1.90;0.70;;;;;;;16.11;100.00;99592.76;104711;1260;70884;-51
2023/08/12 02:05:48;;;;;;;0.90;0.60;;;;;;;16.11;100.00;99597.30;105194;1260;62509;-50
2023/08/12 02:08:15;;;;;;;0.70;0.70;;;;;;;16.11;100.00;99598.73;104955;1256;60901;-50
2023/08/12 02:10:43;;;;;;;1.10;0.70;;;;;;;16.11;100.00;99598.19;104903;1256;73081;-51
2023/08/12 02:13:11;;;;;;;1.60;1.00;;;;;;;16.11;100.00;99602.02;104962;1258;66777;-51
2023/08/12 02:15:38;;;;;;;0.80;0.80;;;;;;;16.11;100.00;99603.10;104774;1258;71483;-51
2023/08/12 02:18:10;;;;;;;1.20;1.00;;;;;;;16.10;100.00;99610.23;107111;1256;60454;-50
2023/08/12 02:20:39;;;;;;;2.00;1.00;;;;;;;16.07;100.00;99611.67;104505;1256;60487;-50
2023/08/12 02:23:06;;;;;;;1.20;0.90;;;;;;;16.04;100.00;99614.44;104832;1265;73813;-49
2023/08/12 02:25:34;;;;;;;0.80;0.80;;;;;;;16.01;100.00;99616.84;104468;1260;66779;-49
2023/08/12 02:28:01;;;;;;;0.90;0.90;;;;;;;15.96;100.00;99614.48;104787;1259;71153;-51
2023/08/12 02:30:29;;;;;;;1.30;0.80;;;;;;;15.92;100.00;99612.61;104916;1256;60592;-51
2023/08/12 02:32:57;;;;;;;1.70;1.10;;;;;;;15.90;100.00;99615.31;104838;1259;60537;-50
2023/08/12 02:35:25;;;;;;;1.90;0.90;;;;;;;15.88;100.00;99612.52;108885;1256;71922;-52
2023/08/12 02:37:52;;;;;;;1.20;0.80;;;;;;;15.88;100.00;99612.54;109129;1258;66854;-51
2023/08/12 02:40:19;;;;;;;1.20;0.80;;;;;;;15.87;100.00;99610.99;108959;1256;71360;-51
2023/08/12 02:42:47;;;;;;;1.70;0.90;;;;;;;15.85;100.00;99611.42;109006;1256;61625;-51
2023/08/12 02:45:14;;;;;;;1.90;0.80;;;;;;;15.86;100.00;99611.96;108905;1259;60061;-51
2023/08/12 02:47:41;;;;;;;2.40;0.80;;;;;;;15.87;100.00;99616.57;109012;1256;73797;-48
2023/08/12 02:50:09;;;;;;;0.80;0.70;;;;;;;15.88;100.00;99615.27;108820;1255;67604;-49
2023/08/12 02:52:36;;;;;;;1.20;0.90;;;;;;;15.89;100.00;99614.64;108958;1256;72708;-48
2023/08/12 02:55:04;;;;;;;3.30;0.90;;;;;;;15.91;100.00;99618.67;108970;1257;62802;-50
2023/08/12 02:57:31;;;;;;;3.40;0.80;;;;;;;15.93;100.00;99617.60;108798;1259;59963;-49
2023/08/12 02:59:58;;;;;;;1.10;0.90;;;;;;;15.96;100.00;99622.86;109064;1256;72643;-48
2023/08/12 03:02:26;;;;;;;0.80;0.80;;;;;;;15.95;100.00;99624.69;107525;1258;65640;-48
2023/08/12 03:04:54;;;;;;;2.20;0.90;;;;;;;15.94;100.00;99619.73;108828;1254;72760;-49
2023/08/12 03:07:21;;;;;;;8.80;1.10;;;;;;;15.93;100.00;99622.29;105833;1259;60414;-50
2023/08/12 03:09:49;;;;;;;0.80;0.80;;;;;;;15.93;100.00;99625.56;105081;1261;60369;-49
2023/08/12 03:12:16;;;;;;;1.40;0.80;;;;;;;15.92;100.00;99623.48;104773;1261;73845;-50
2023/08/12 03:14:44;;;;;;;2.00;1.10;;;;;;;15.91;100.00;99620.26;104766;1261;67495;-50
2023/08/12 03:17:11;;;;;;;1.80;1.20;;;;;;;15.91;100.00;99619.21;106759;1258;72369;-48
2023/08/12 03:19:39;;;;;;;2.40;0.90;;;;;;;15.93;100.00;99616.55;104730;1254;60882;-48
2023/08/12 03:22:06;;;;;;;1.00;0.90;;;;;;;15.92;100.00;99618.94;104697;1259;60564;-50
2023/08/12 03:24:34;;;;;;;1.30;0.90;;;;;;;15.92;100.00;99621.11;104828;1261;74801;-48
2023/08/12 03:27:02;;;;;;;2.90;0.90;;;;;;;15.93;100.00;99622.85;104938;1262;66442;-48
2023/08/12 03:29:30;;;;;;;1.30;1.20;;;;;;;15.94;100.00;99625.13;105986;1261;72681;-49
2023/08/12 03:31:57;;;;;;;1.20;1.10;;;;;;;15.96;100.00;99625.18;104534;1259;61655;-48
2023/08/12 03:34:28;;;;;;;4.40;0.90;;;;;;;15.98;100.00;99623.75;107015;1259;60473;-47
2023/08/12 03:36:56;;;;;;;1.60;1.20;;;;;;;16.01;100.00;99624.63;105117;1258;72811;-49
2023/08/12 03:39:24;;;;;;;2.20;1.20;;;;;;;16.02;100.00;99625.98;106827;1265;67664;-48
2023/08/12 03:41:52;;;;;;;2.00;1.50;;;;;;;16.05;100.00;99630.88;104732;1259;71269;-47
2023/08/12 03:44:20;;;;;;;4.40;1.50;;;;;;;16.07;100.00;99630.54;108229;1256;61672;-47
2023/08/12 03:46:48;;;;;;;2.10;1.30;;;;;;;16.09;100.00;99634.48;105189;1257;60552;-48
2023/08/12 03:49:15;;;;;;;1.70;1.20;;;;;;;16.11;100.00;99635.98;104779;1259;73776;-47
2023/08/12 03:51:45;;;;;;;1.90;1.30;;;;;;;16.13;100.00;99631.73;105118;1259;67554;-49
2023/08/12 03:54:12;;;;;;;1.80;1.30;;;;;;;16.14;100.00;99630.56;104818;1256;72475;-48
2023/08/12 03:56:40;;;;;;;1.60;1.10;;;;;;;16.17;100.00;99634.85;104595;1257;60566;-51
2023/08/12 03:59:07;;;;;;;2.50;1.10;;;;;;;16.20;100.00;99635.52;104687;1260;60509;-47
2023/08/12 04:01:37;;;;;;;1.00;0.90;;;;;;;16.22;100.00;99637.77;105448;1260;73725;-48
2023/08/12 04:04:04;;;;;;;1.10;1.00;;;;;;;16.24;100.00;99640.64;106304;1260;66432;-47
2023/08/12 04:06:32;;;;;;;1.40;1.20;;;;;;;16.26;100.00;99633.42;104918;1254;71471;-49
2023/08/12 04:08:59;;;;;;;2.40;0.90;;;;;;;16.31;100.00;99632.21;105630;1256;61662;-50
2023/08/12 04:11:26;;;;;;;2.50;1.10;;;;;;;16.36;100.00;99633.99;104677;1262;59261;-51
2023/08/12 04:13:54;;;;;;;3.10;1.40;;;;;;;16.41;100.00;99635.56;104579;1258;74888;-50
2023/08/12 04:16:21;;;;;;;2.10;1.10;;;;;;;16.48;100.00;99637.23;104924;1261;66453;-47
2023/08/12 04:18:49;;;;;;;1.40;1.10;;;;;;;16.53;100.00;99637.20;105147;1257;71392;-48
2023/08/12 04:21:16;;;;;;;1.80;1.20;;;;;;;16.59;100.00;99634.58;104794;1269;62312;-48
2023/08/12 04:23:44;;;;;;;1.00;1.00;;;;;;;16.68;100.00;99634.92;104983;1254;60563;-50
2023/08/12 04:26:12;;;;;;;5.20;1.20;;;;;;;16.76;100.00;99640.03;104506;1254;73795;-48
2023/08/12 04:28:39;;;;;;;2.20;0.90;;;;;;;16.86;100.00;99640.74;104838;1258;67513;-48
2023/08/12 04:31:09;;;;;;;2.30;1.20;;;;;;;16.97;100.00;99642.26;104569;1260;70541;-48
2023/08/12 04:33:38;;;;;;;1.40;1.20;;;;;;;17.10;100.00;99640.50;105064;1256;60519;-49
2023/08/12 04:36:06;;;;;;;1.90;1.10;;;;;;;17.27;100.00;99644.11;104801;1254;61436;-50
2023/08/12 04:38:33;;;;;;;4.30;0.90;;;;;;;17.41;100.00;99646.41;104940;1257;73856;-50
2023/08/12 04:41:02;;;;;;;1.70;1.00;;;;;;;17.56;100.00;99646.58;104653;1260;67372;-49
2023/08/12 04:43:29;;;;;;;1.30;0.90;;;;;;;17.68;100.00;99645.30;106675;1254;72658;-48
2023/08/12 04:45:57;;;;;;;1.90;1.10;;;;;;;17.76;100.00;99648.97;105015;1254;61602;-49
2023/08/12 04:48:24;;;;;;;1.80;1.00;;;;;;;17.85;100.00;99654.65;104756;1253;165800;-51
2023/08/12 04:51:51;;;;;;;2.60;1.10;;;;;;;17.91;100.00;99712.42;102032;1292;600226;-50
2023/08/12 04:54:19;;;;;;;1.90;1.30;;;;;;;17.92;100.00;99676.56;104401;1266;59772;-49
2023/08/12 04:56:47;;;;;;;1.10;1.00;;;;;;;17.96;100.00;99676.25;103930;1267;60051;-50
2023/08/12 04:59:15;;;;;;;1.50;1.30;;;;;;;18.00;100.00;99676.28;103906;1266;71707;-50
2023/08/12 05:01:43;;;;;;;1.30;1.20;;;;;;;18.04;100.00;99678.16;103982;1267;65844;-49
2023/08/12 05:04:30;;;;;;;2.20;1.20;;;;;;;18.09;100.00;99679.36;104374;1269;202298;-52
2023/08/12 05:06:58;;;;;;;3.00;1.20;;;;;;;18.15;100.00;99682.67;104050;1267;61708;-50
2023/08/12 05:09:25;;;;;;;1.40;1.10;;;;;;;18.19;100.00;99685.33;103900;1264;60009;-50
2023/08/12 05:11:53;;;;;;;1.50;0.80;;;;;;;18.23;100.00;99682.59;108157;1263;71814;-48
2023/08/12 05:14:20;;;;;;;1.00;0.90;;;;;;;18.28;100.00;99681.06;105512;1268;67580;-47
2023/08/12 05:16:48;;;;;;;1.30;0.90;;;;;;;18.35;100.00;99683.27;104275;1270;72800;-52
2023/08/12 05:19:15;;;;;;;3.80;1.20;;;;;;;18.40;100.00;99683.19;104612;1260;61798;-48
2023/08/12 05:21:43;;;;;;;5.80;1.60;;;;;;;18.46;100.00;99687.08;108620;1256;58818;-52
2023/08/12 05:24:11;;;;;;;1.70;1.40;;;;;;;18.51;100.00;99684.62;108695;1256;74869;-49
2023/08/12 05:26:38;;;;;;;1.30;1.20;;;;;;;18.58;100.00;99688.50;106239;1258;67511;-49
2023/08/12 05:29:06;;;;;;;1.30;1.20;;;;;;;18.65;100.00;99686.23;104704;1260;71177;-49
2023/08/12 05:31:33;;;;;;;1.80;1.00;;;;;;;18.73;100.00;99691.03;104415;1256;60528;-48
2023/08/12 05:34:00;;;;;;;1.50;1.00;;;;;;;18.81;100.00;99697.11;104666;1256;59995;-51
2023/08/12 05:36:28;;;;;;;2.40;1.20;;;;;;;18.85;100.00;99700.55;104794;1256;72822;-50
2023/08/12 05:38:56;;;;;;;1.50;1.10;;;;;;;18.89;100.00;99703.63;105404;1254;66841;-49
2023/08/12 05:41:23;;;;;;;2.10;0.90;;;;;;;18.94;100.00;99711.86;104650;1258;72692;-50
2023/08/12 05:43:50;;;;;;;1.00;0.90;;;;;;;18.97;100.00;99712.30;104997;1259;60409;-49
2023/08/12 05:46:18;;;;;;;1.00;0.90;;;;;;;19.00;100.00;99713.50;104959;1254;59971;-49
2023/08/12 05:48:45;;;;;;;3.20;0.80;;;;;;;19.05;100.00;99713.64;104894;1256;73092;-48
2023/08/12 05:51:12;;;;;;;1.90;0.90;;;;;;;19.11;100.00;99712.57;104858;1258;66783;-49
2023/08/12 05:53:40;;;;;;;2.30;1.00;;;;;;;19.17;100.00;99710.40;104881;1261;71773;-50
2023/08/12 05:56:07;;;;;;;1.50;1.40;;;;;;;19.24;100.00;99716.15;104842;1258;59742;-49
2023/08/12 05:58:34;;;;;;;4.10;1.20;;;;;;;19.28;100.00;99722.19;104810;1261;59857;-49
2023/08/12 06:01:02;;;;;;;2.40;0.90;;;;;;;19.30;100.00;99720.80;104832;1256;72810;-48
2023/08/12 06:03:29;;;;;;;1.20;0.90;;;;;;;19.32;100.00;99725.00;104432;1262;66924;-49
2023/08/12 06:05:57;;;;;;;1.30;0.90;;;;;;;19.32;100.00;99725.52;107024;1257;71453;-48
2023/08/12 06:08:24;;;;;;;2.60;0.90;;;;;;;19.34;100.00;99725.20;104690;1258;60406;-51
2023/08/12 06:10:52;;;;;;;1.40;1.00;;;;;;;19.38;100.00;99730.24;104517;1258;60000;-50
2023/08/12 06:13:20;;;;;;;1.20;1.00;;;;;;;19.44;100.00;99726.33;104389;1257;72581;-50
2023/08/12 06:15:47;;;;;;;2.10;1.00;;;;;;;19.48;100.00;99723.64;104659;1258;67699;-49
2023/08/12 06:18:15;;;;;;;4.70;1.00;;;;;;;19.52;100.00;99722.33;105182;1259;72438;-50
2023/08/12 06:20:43;;;;;;;1.10;1.00;;;;;;;19.57;100.00;99728.30;105578;1256;60082;-48
2023/08/12 06:23:10;;;;;;;1.20;1.10;;;;;;;19.60;100.00;99722.22;104473;1257;60018;-49
2023/08/12 06:25:37;;;;;;;4.70;1.10;;;;;;;19.64;100.00;99726.45;104526;1256;72999;-51
2023/08/12 06:28:05;;;;;;;2.80;1.00;;;;;;;19.68;100.00;99729.17;104826;1260;66764;-49
2023/08/12 06:30:32;;;;;;;1.40;1.30;;;;;;;19.72;100.00;99732.66;104478;1255;72482;-47
2023/08/12 06:33:00;;;;;;;1.30;1.20;;;;;;;19.73;100.00;99730.80;105150;1262;62609;-50
2023/08/12 06:35:27;;;;;;;1.40;0.70;;;;;;;19.72;100.00;99729.73;104443;1260;59744;-50
2023/08/12 06:37:54;;;;;;;1.20;0.80;;;;;;;19.74;100.00;99732.14;104328;1258;71772;-52
2023/08/12 06:40:22;;;;;;;0.90;0.70;;;;;;;19.74;100.00;99733.38;104564;1258;66620;-50
2023/08/12 06:42:49;;;;;;;1.20;0.80;;;;;;;19.73;100.00;99731.30;105235;1261;71318;-49
2023/08/12 06:45:16;;;;;;;2.60;0.80;;;;;;;19.72;100.00;99728.67;104727;1256;59720;-47
2023/08/12 06:47:44;;;;;;;0.80;0.80;;;;;;;19.71;100.00;99733.71;104707;1256;60589;-48
2023/08/12 06:50:11;;;;;;;1.80;1.10;;;;;;;19.71;100.00;99736.19;104672;1257;72413;-50
2023/08/12 06:52:38;;;;;;;1.60;0.90;;;;;;;19.72;100.00;99737.63;104786;1260;67403;-48
2023/08/12 06:55:06;;;;;;;1.50;1.10;;;;;;;19.72;100.00;99742.67;104753;1262;72427;-50
2023/08/12 06:57:34;;;;;;;0.80;0.80;;;;;;;19.73;100.00;99750.23;104707;1256;61693;-50
2023/08/12 07:00:02;;;;;;;2.80;0.80;;;;;;;19.73;100.00;99750.41;104711;1258;59550;-50
2023/08/12 07:02:29;;;;;;;5.00;0.70;;;;;;;19.72;100.00;99751.76;104686;1256;71966;-51
2023/08/12 07:04:56;;;;;;;1.60;0.90;;;;;;;19.72;100.00;99750.54;104804;1257;67349;-49
2023/08/12 07:07:24;;;;;;;1.00;0.80;;;;;;;19.71;100.00;99753.89;104964;1256;72178;-48
2023/08/12 07:09:51;;;;;;;2.00;0.90;;;;;;;19.72;100.00;99752.92;104641;1257;59781;-50
2023/08/12 07:12:19;;;;;;;1.00;0.80;;;;;;;19.76;100.00;99755.64;104663;1259;59728;-48
2023/08/12 07:14:46;;;;;;;3.80;0.90;;;;;;;19.78;100.00;99751.22;104679;1256;71857;-49
2023/08/12 07:17:13;;;;;;;2.60;0.80;;;;;;;19.83;100.00;99753.35;104745;1256;67778;-48
2023/08/12 07:19:40;;;;;;;1.40;1.00;;;;;;;19.90;100.00;99755.50;104631;1260;72445;-49
2023/08/12 07:22:08;;;;;;;1.90;0.80;;;;;;;19.99;100.00;99758.15;104687;1259;61658;-48
2023/08/12 07:24:36;;;;;;;3.10;0.70;;;;;;;20.09;100.00;99760.89;104727;1259;59684;-47
2023/08/12 07:27:03;;;;;;;2.90;0.90;;;;;;;20.19;100.00;99764.93;104515;1262;71813;-50
2023/08/12 07:29:34;;;;;;;1.50;1.10;;;;;;;20.24;100.00;99770.31;104612;1261;67544;-48
2023/08/12 07:32:01;;;;;;;2.80;1.30;;;;;;;20.27;100.00;99769.31;104741;1257;73190;-49
2023/08/12 07:34:28;;;;;;;1.80;0.90;;;;;;;20.30;100.00;99773.48;104668;1262;59747;-50
2023/08/12 07:36:58;;;;;;;0.90;0.80;;;;;;;20.31;100.00;99769.35;104883;1262;60097;-48
2023/08/12 07:39:26;;;;;;;1.10;0.90;;;;;;;20.35;100.00;99771.20;104719;1258;71879;-51
2023/08/12 07:41:53;;;;;;;1.00;0.90;;;;;;;20.39;100.00;99770.67;104960;1259;66512;-50
2023/08/12 07:44:20;;;;;;;1.70;1.20;;;;;;;20.44;100.00;99769.03;104645;1259;71415;-51
2023/08/12 07:46:49;;;;;;;1.10;0.70;;;;;;;20.49;100.00;99771.23;104686;1259;60408;-50
2023/08/12 07:49:16;;;;;;;1.40;0.80;;;;;;;20.59;100.00;99773.08;104844;1256;59970;-50
2023/08/12 07:51:44;;;;;;;1.60;1.10;;;;;;;20.68;100.00;99775.40;104649;1258;71825;-49
2023/08/12 07:54:12;;;;;;;2.60;1.20;;;;;;;20.74;100.00;99779.41;104833;1261;65494;-50
2023/08/12 07:56:39;;;;;;;2.70;1.60;;;;;;;20.77;100.00;99778.54;104802;1259;71392;-50
2023/08/12 07:59:06;;;;;;;2.00;0.90;;;;;;;20.81;100.00;99782.05;104837;1259;62614;-49
2023/08/12 08:01:34;;;;;;;1.40;0.70;;;;;;;20.83;100.00;99782.45;104615;1260;59516;-50
2023/08/12 08:04:05;;;;;;;2.30;0.90;;;;;;;20.84;100.00;99784.54;104690;1256;73040;-51
2023/08/12 08:06:33;;;;;;;2.90;0.90;;;;;;;20.85;100.00;99787.30;106009;1260;66028;-50
2023/08/12 08:09:03;;;;;;;1.80;0.70;;;;;;;20.87;100.00;99790.22;106222;1262;72704;-50
2023/08/12 08:11:31;;;;;;;2.60;0.70;;;;;;;20.91;100.00;99786.09;104691;1256;61685;-50
2023/08/12 08:13:59;;;;;;;1.60;0.70;;;;;;;20.97;100.00;99791.92;104671;1261;59629;-50
2023/08/12 08:16:26;;;;;;;1.20;0.70;;;;;;;21.07;100.00;99786.42;104551;1262;70898;-50
2023/08/12 08:18:55;;;;;;;0.80;0.80;;;;;;;21.19;100.00;99785.70;106086;1256;68818;-51
2023/08/12 08:21:25;;;;;;;1.50;0.70;;;;;;;21.34;100.00;99797.27;108677;1257;70230;-51
2023/08/12 08:23:52;;;;;;;2.00;1.10;;;;;;;21.45;100.00;99797.46;108888;1256;58806;-50
2023/08/12 08:26:19;;;;;;;0.90;0.80;;;;;;;21.54;100.00;99804.31;108837;1256;60028;-52
2023/08/12 08:28:47;;;;;;;2.90;0.70;;;;;;;21.60;100.00;99804.49;108813;1258;73120;-51
2023/08/12 08:31:15;;;;;;;1.60;0.60;;;;;;;21.66;100.00;99804.50;108856;1256;65521;-51
2023/08/12 08:33:42;;;;;;;0.90;0.80;;;;;;;21.71;100.00;99797.23;108865;1258;72473;-50
2023/08/12 08:36:11;;;;;;;2.60;0.70;;;;;;;21.79;100.00;99805.97;108745;1256;58937;-52
2023/08/12 08:38:39;;;;;;;0.70;0.70;;;;;;;21.91;100.00;99810.56;108756;1256;59535;-52
2023/08/12 08:41:06;;;;;;;0.80;0.60;;;;;;;21.98;100.00;99809.02;108818;1256;71782;-51
2023/08/12 08:43:33;;;;;;;2.10;0.50;;;;;;;22.02;100.00;99819.63;108752;1256;68274;-52
2023/08/12 08:46:01;;;;;;;1.00;0.50;;;;;;;22.03;100.00;99820.95;108778;1256;72037;-52
2023/08/12 08:48:28;;;;;;;1.00;0.60;;;;;;;22.00;100.00;99821.96;108940;1255;58881;-52
2023/08/12 08:50:56;;;;;;;0.80;0.60;;;;;;;21.98;100.00;99822.70;109004;1255;58785;-51
2023/08/12 08:53:23;;;;;;;0.60;0.60;;;;;;;21.97;100.00;99825.86;108943;1255;73102;-52
2023/08/12 08:55:50;;;;;;;1.00;0.50;;;;;;;21.98;100.00;99827.52;109040;1255;66888;-51
2023/08/12 08:58:18;;;;;;;1.00;0.60;;;;;;;21.95;100.00;99827.38;108945;1256;71397;-51
2023/08/12 09:00:48;;;;;;;1.50;0.60;;;;;;;21.92;100.00;99829.09;105394;1255;60566;-49
2023/08/12 09:03:16;;;;;;;1.40;0.50;;;;;;;21.90;100.00;99831.61;104903;1254;60514;-50
2023/08/12 09:05:43;;;;;;;3.20;0.60;;;;;;;21.89;100.00;99829.48;104955;1256;72572;-49
2023/08/12 09:08:12;;;;;;;2.60;0.60;;;;;;;21.88;100.00;99829.82;104782;1261;67579;-48
2023/08/12 09:10:40;;;;;;;2.30;0.60;;;;;;;21.86;100.00;99831.12;104906;1261;73114;-49
2023/08/12 09:13:08;;;;;;;1.30;0.60;;;;;;;21.84;100.00;99825.98;104642;1259;60559;-49
2023/08/12 09:15:36;;;;;;;1.90;0.50;;;;;;;21.82;100.00;99833.66;105000;1259;60520;-49
2023/08/12 09:18:07;;;;;;;0.90;0.60;;;;;;;21.80;100.00;99833.08;104863;1256;72653;-48
2023/08/12 09:20:34;;;;;;;4.40;0.60;;;;;;;21.80;100.00;99832.95;104992;1260;66861;-50
2023/08/12 09:23:02;;;;;;;0.90;0.60;;;;;;;21.80;100.00;99831.69;104762;1256;73697;-49
2023/08/12 09:25:29;;;;;;;0.60;0.60;;;;;;;21.81;100.00;99832.67;105010;1258;60976;-50
2023/08/12 09:28:00;;;;;;;1.20;0.70;;;;;;;21.83;100.00;99832.11;104991;1256;62653;-50
2023/08/12 09:30:29;;;;;;;1.20;0.60;;;;;;;21.89;100.00;99832.48;104689;1256;74231;-51
2023/08/12 09:33:06;;;;;;;0.50;0.50;;;;;;;21.96;100.00;99840.05;108927;1254;65694;-51
2023/08/12 09:35:38;;;;;;;0.60;0.50;;;;;;;22.05;100.00;99841.58;108971;1256;73120;-50
2023/08/12 09:38:07;;;;;;;3.10;0.50;;;;;;;22.16;100.00;99838.71;108950;1255;58789;-50
2023/08/12 09:40:35;;;;;;;2.50;0.60;;;;;;;22.31;100.00;99841.52;108905;1254;59106;-50
2023/08/12 09:43:02;;;;;;;0.60;0.60;;;;;;;22.46;100.00;99844.45;108898;1258;73661;-50
2023/08/12 09:45:31;;;;;;;0.60;0.60;;;;;;;22.60;100.00;99849.05;107351;1258;65659;-49
2023/08/12 09:47:58;;;;;;;0.80;0.60;;;;;;;22.75;100.00;99850.80;105090;1256;74061;-50
2023/08/12 09:50:26;;;;;;;0.70;0.60;;;;;;;22.90;100.00;99859.91;105237;1256;60719;-49
2023/08/12 09:52:54;;;;;;;0.60;0.60;;;;;;;23.00;100.00;99854.86;104954;1257;60585;-51
2023/08/12 09:55:23;;;;;;;1.10;0.60;;;;;;;23.11;100.00;99859.64;104698;1258;73595;-52
2023/08/12 09:57:52;;;;;;;1.60;0.50;;;;;;;23.25;100.00;99869.38;105061;1257;67655;-50
2023/08/12 10:00:23;;;;;;;1.70;0.50;;;;;;;23.40;100.00;99872.89;104719;1256;72674;-51
2023/08/12 10:02:51;;;;;;;0.60;0.50;;;;;;;23.52;100.00;99870.83;105075;1256;60615;-52
2023/08/12 10:05:28;;;;;;;1.30;0.50;;;;;;;23.63;100.00;99878.77;105400;1256;60460;-52
2023/08/12 10:07:55;;;;;;;1.00;0.50;;;;;;;23.74;100.00;99889.03;105005;1255;74307;-50
2023/08/12 10:10:22;;;;;;;1.60;0.50;;;;;;;23.79;100.00;99891.70;104844;1256;67046;-50
2023/08/12 10:12:50;;;;;;;0.80;0.60;;;;;;;23.81;100.00;99894.04;105019;1256;72667;-51
2023/08/12 10:15:17;;;;;;;4.00;0.50;;;;;;;23.82;100.00;99894.62;104822;1260;60617;-51
2023/08/12 10:17:45;;;;;;;0.80;0.50;;;;;;;23.85;100.00;99903.69;104691;1256;60556;-53
2023/08/12 10:20:13;;;;;;;0.50;0.50;;;;;;;23.82;100.00;99907.52;104893;1260;73844;-51
2023/08/12 10:22:41;;;;;;;2.10;0.60;;;;;;;23.74;100.00;99911.83;105196;1259;65500;-51
2023/08/12 10:25:08;;;;;;;0.60;0.40;;;;;;;23.65;100.00;99909.77;104775;1256;72665;-52
2023/08/12 10:27:36;;;;;;;0.80;0.60;;;;;;;23.60;100.00;99908.27;104789;1256;60560;-50
2023/08/12 10:30:05;;;;;;;0.70;0.60;;;;;;;23.58;100.00;99910.30;105237;1256;60553;-50
2023/08/12 10:32:33;;;;;;;1.70;0.60;;;;;;;23.57;100.00;99907.64;105000;1255;73863;-48
2023/08/12 10:35:00;;;;;;;0.60;0.50;;;;;;;23.59;100.00;99906.36;105924;1256;67973;-53
2023/08/12 10:37:31;;;;;;;0.70;0.50;;;;;;;23.58;100.00;99907.69;104677;1258;73357;-52
2023/08/12 10:39:58;;;;;;;2.10;0.50;;;;;;;23.58;100.00;99911.73;104774;1256;60445;-51
2023/08/12 10:42:45;;;;;;;1.30;0.50;;;;;;;23.55;100.00;99905.27;104790;1256;60554;-50
2023/08/12 10:45:14;;;;;;;0.60;0.60;;;;;;;23.57;100.00;99903.08;104892;1257;72642;-48
2023/08/12 10:47:51;;;;;;;1.80;0.50;;;;;;;23.62;100.00;99905.66;104977;1257;66789;-50
2023/08/12 10:50:19;;;;;;;2.30;0.50;;;;;;;23.68;100.00;99903.90;105283;1256;72670;-51
2023/08/12 10:52:47;;;;;;;0.60;0.50;;;;;;;23.77;100.00;99907.79;104806;1258;60591;-50
2023/08/12 10:55:19;;;;;;;1.80;0.60;;;;;;;23.86;100.00;99910.42;104942;1256;60540;-52
2023/08/12 10:57:47;;;;;;;0.70;0.50;;;;;;;23.93;100.00;99903.58;104963;1259;72498;-50
2023/08/12 11:00:21;;;;;;;2.20;0.50;;;;;;;24.03;100.00;99908.61;104932;1257;65916;-52
2023/08/12 11:02:50;;;;;;;0.80;0.70;;;;;;;24.13;100.00;99916.21;104695;1256;72689;-51
2023/08/12 11:05:19;;;;;;;0.50;0.40;;;;;;;24.20;100.00;99918.27;104958;1268;60544;-52
2023/08/12 11:08:05;;;;;;;0.60;0.50;;;;;;;24.23;100.00;99924.06;105171;1256;60478;-49
2023/08/12 11:10:34;;;;;;;1.90;0.50;;;;;;;24.20;100.00;99921.73;106176;1256;73805;-50
2023/08/12 11:13:02;;;;;;;0.60;0.40;;;;;;;24.19;100.00;99926.83;104759;1256;67862;-50
2023/08/12 11:15:33;;;;;;;0.40;0.40;;;;;;;24.17;100.00;99929.00;104834;1256;72651;-51
2023/08/12 11:18:05;;;;;;;1.50;1.30;;;;;;;24.14;100.00;99931.88;104877;1259;62716;-51
2023/08/12 11:20:33;;;;;;;0.70;0.50;;;;;;;24.12;100.00;99927.31;106173;1254;60470;-51
2023/08/12 11:23:01;;;;;;;0.60;0.50;;;;;;;24.14;100.00;99920.56;104771;1258;74322;-52